createdAt,value
2022-07-25T00:01:59.827Z,40.51
2022-07-25T00:04:27.812Z,40.40
2022-07-25T00:06:55.701Z,39.92
2022-07-25T00:09:22.856Z,40.28
2022-07-25T00:11:50.112Z,40.13
2022-07-25T00:14:17.387Z,38.08
2022-07-25T00:16:45.061Z,38.77
2022-07-25T00:19:12.351Z,39.76
2022-07-25T00:21:42.125Z,39.47
2022-07-25T00:24:09.924Z,40.77
2022-07-25T00:26:40.217Z,40.64
2022-07-25T00:29:08.041Z,39.14
2022-07-25T00:31:38.221Z,41.46
2022-07-25T00:34:05.694Z,41.58
2022-07-25T00:36:33.182Z,41.31
2022-07-25T00:39:00.395Z,40.25
2022-07-25T00:41:27.845Z,40.03
2022-07-25T00:43:56.167Z,41.22
2022-07-25T00:46:23.912Z,41.00
2022-07-25T00:48:51.486Z,41.13
2022-07-25T00:51:39.040Z,41.22
2022-07-25T00:54:06.761Z,40.88
2022-07-25T00:56:46.405Z,42.51
2022-07-25T00:59:13.824Z,42.10
2022-07-25T01:01:42.698Z,42.65
2022-07-25T01:04:09.960Z,42.41
2022-07-25T01:06:37.198Z,42.61
2022-07-25T01:09:04.462Z,42.03
2022-07-25T01:11:31.657Z,41.45
2022-07-25T01:13:59.538Z,41.91
2022-07-25T01:16:26.806Z,42.14
2022-07-25T01:18:54.402Z,41.02
2022-07-25T01:21:30.594Z,42.16
2022-07-25T01:23:57.843Z,42.16
2022-07-25T01:26:25.140Z,42.56
2022-07-25T01:28:52.778Z,41.87
2022-07-25T01:31:26.061Z,42.05
2022-07-25T01:33:53.440Z,41.88
2022-07-25T01:36:20.696Z,41.40
2022-07-25T01:38:47.908Z,41.48
2022-07-25T01:41:22.418Z,42.24
2022-07-25T01:43:50.175Z,41.41
2022-07-25T01:46:17.583Z,41.38
2022-07-25T01:48:45.000Z,42.73
2022-07-25T01:51:12.323Z,43.12
2022-07-25T01:54:10.439Z,42.30
2022-07-25T01:56:37.896Z,42.51
2022-07-25T01:59:06.421Z,42.77
2022-07-25T02:01:33.662Z,42.31
2022-07-25T02:04:01.037Z,43.09
2022-07-25T02:06:28.392Z,43.50
2022-07-25T02:08:55.605Z,41.38
2022-07-25T02:11:22.950Z,42.99
2022-07-25T02:13:50.213Z,42.10
2022-07-25T02:16:17.905Z,43.86
2022-07-25T02:18:46.029Z,43.67
2022-07-25T02:21:15.035Z,43.41
2022-07-25T02:23:43.039Z,42.90
2022-07-25T02:26:10.557Z,42.42
2022-07-25T02:28:37.929Z,42.31
2022-07-25T02:31:05.233Z,42.33
2022-07-25T02:33:32.492Z,42.63
2022-07-25T02:35:59.654Z,42.05
2022-07-25T02:38:26.855Z,43.23
2022-07-25T02:40:57.064Z,43.19
2022-07-25T02:43:24.314Z,42.40
2022-07-25T02:45:51.797Z,42.33
2022-07-25T02:48:19.196Z,42.03
2022-07-25T02:50:46.396Z,42.37
2022-07-25T02:53:14.142Z,42.18
2022-07-25T02:55:45.451Z,42.23
2022-07-25T02:58:14.982Z,42.18
2022-07-25T03:00:42.540Z,42.75
2022-07-25T03:03:11.695Z,44.28
2022-07-25T03:05:38.936Z,43.35
2022-07-25T03:08:06.200Z,42.72
2022-07-25T03:10:34.389Z,44.07
2022-07-25T03:13:01.757Z,43.96
2022-07-25T03:15:28.984Z,43.73
2022-07-25T03:17:56.215Z,43.69
2022-07-25T03:20:23.504Z,43.57
2022-07-25T03:22:50.757Z,43.34
2022-07-25T03:25:21.691Z,43.16
2022-07-25T03:27:51.994Z,42.24
2022-07-25T03:30:19.584Z,45.96
2022-07-25T03:32:46.905Z,45.21
2022-07-25T03:35:14.177Z,45.12
2022-07-25T03:37:41.524Z,45.97
2022-07-25T03:40:09.258Z,45.65
2022-07-25T03:42:36.582Z,45.82
2022-07-25T03:45:04.360Z,45.00
2022-07-25T03:47:31.583Z,45.44
2022-07-25T03:49:58.837Z,44.13
2022-07-25T03:52:26.142Z,44.64
2022-07-25T03:54:53.637Z,44.72
2022-07-25T03:57:20.918Z,45.52
2022-07-25T03:59:48.177Z,45.63
2022-07-25T04:02:15.424Z,46.16
2022-07-25T04:04:42.716Z,45.84
2022-07-25T04:07:09.946Z,45.68
2022-07-25T04:09:37.940Z,45.72
2022-07-25T04:12:05.442Z,46.35
2022-07-25T04:14:32.745Z,47.15
2022-07-25T04:17:00.063Z,46.23
2022-07-25T04:19:50.133Z,46.47
2022-07-25T04:22:18.164Z,46.28
2022-07-25T04:24:45.479Z,45.89
2022-07-25T04:27:12.685Z,45.38
2022-07-25T04:29:39.948Z,45.50
2022-07-25T04:32:07.441Z,45.23
2022-07-25T04:34:34.650Z,45.29
2022-07-25T04:37:01.957Z,45.52
2022-07-25T04:39:29.158Z,45.54
2022-07-25T04:42:00.278Z,45.80
2022-07-25T04:44:27.490Z,45.88
2022-07-25T04:46:54.661Z,46.13
2022-07-25T04:49:21.858Z,45.93
2022-07-25T04:51:49.111Z,45.93
2022-07-25T04:54:16.303Z,46.24
2022-07-25T04:56:46.827Z,46.21
2022-07-25T04:59:14.043Z,45.98
2022-07-25T05:01:41.257Z,46.55
2022-07-25T05:04:08.621Z,46.50
2022-07-25T05:06:35.959Z,44.01
2022-07-25T05:09:03.290Z,46.00
2022-07-25T05:11:30.532Z,45.04
2022-07-25T05:13:57.916Z,44.99
2022-07-25T05:16:25.189Z,44.50
2022-07-25T05:18:52.489Z,44.27
2022-07-25T05:21:19.739Z,44.21
2022-07-25T05:23:47.116Z,43.99
2022-07-25T05:26:14.351Z,44.24
2022-07-25T05:28:43.667Z,44.22
2022-07-25T05:31:13.128Z,44.49
2022-07-25T05:33:42.886Z,44.54
2022-07-25T05:36:10.129Z,44.60
2022-07-25T05:38:40.137Z,44.97
2022-07-25T05:41:07.444Z,44.61
2022-07-25T05:43:34.654Z,42.39
2022-07-25T05:46:02.607Z,44.57
2022-07-25T05:48:30.111Z,44.49
2022-07-25T05:50:59.168Z,44.58
2022-07-25T05:53:26.511Z,44.60
2022-07-25T05:55:53.946Z,44.05
2022-07-25T05:58:23.980Z,44.47
2022-07-25T06:00:55.088Z,44.29
2022-07-25T06:03:22.325Z,44.40
2022-07-25T06:05:49.624Z,42.67
2022-07-25T06:08:16.829Z,42.86
2022-07-25T06:10:44.536Z,43.61
2022-07-25T06:13:12.443Z,41.83
2022-07-25T06:15:39.807Z,44.23
2022-07-25T06:18:07.021Z,43.94
2022-07-25T06:20:45.319Z,44.26
2022-07-25T06:23:12.604Z,43.59
2022-07-25T06:25:39.864Z,44.12
2022-07-25T06:28:07.356Z,43.48
2022-07-25T06:30:38.025Z,43.44
2022-07-25T06:33:05.245Z,43.62
2022-07-25T06:35:32.529Z,41.26
2022-07-25T06:37:59.791Z,42.66
2022-07-25T06:40:27.048Z,40.01
2022-07-25T06:42:54.424Z,42.13
2022-07-25T06:45:25.234Z,42.71
2022-07-25T06:47:52.695Z,39.67
2022-07-25T06:50:21.126Z,41.07
2022-07-25T06:52:49.045Z,40.78
2022-07-25T06:55:16.439Z,40.52
2022-07-25T06:57:43.640Z,40.85
2022-07-25T07:00:12.228Z,39.46
2022-07-25T07:02:51.988Z,40.97
2022-07-25T07:05:19.485Z,42.25
2022-07-25T07:07:47.930Z,41.42
2022-07-25T07:10:33.800Z,40.33
2022-07-25T07:13:05.589Z,41.94
2022-07-25T07:15:35.327Z,40.77
2022-07-25T07:18:02.520Z,41.26
2022-07-25T07:20:29.880Z,40.63
2022-07-25T07:22:57.163Z,41.00
2022-07-25T07:25:28.389Z,40.80
2022-07-25T07:28:28.174Z,39.49
2022-07-25T07:33:43.410Z,40.17
2022-07-25T07:36:11.343Z,39.63
2022-07-25T07:38:41.630Z,41.16
2022-07-25T07:41:08.925Z,41.25
2022-07-25T07:43:36.320Z,41.51
2022-07-25T07:46:03.722Z,41.29
2022-07-25T07:48:31.335Z,40.97
2022-07-25T07:50:59.004Z,40.69
2022-07-25T07:53:46.249Z,39.29
2022-07-25T07:56:13.998Z,40.62
2022-07-25T07:58:41.242Z,41.09
2022-07-25T08:01:08.551Z,39.76
2022-07-25T08:03:46.584Z,40.70
2022-07-25T08:06:13.838Z,41.96
2022-07-25T08:08:41.698Z,38.94
2022-07-25T08:11:08.969Z,39.42
2022-07-25T08:13:38.161Z,38.88
2022-07-25T08:16:05.742Z,38.96
2022-07-25T08:18:33.494Z,37.52
2022-07-25T08:21:03.074Z,38.72
2022-07-25T08:23:32.056Z,39.07
2022-07-25T08:25:59.461Z,38.32
2022-07-25T08:28:26.733Z,36.72
2022-07-25T08:30:54.355Z,36.84
2022-07-25T08:33:21.666Z,37.25
2022-07-25T08:35:53.685Z,35.40
2022-07-25T08:38:21.584Z,39.13
2022-07-25T08:40:48.950Z,35.74
2022-07-25T08:43:18.025Z,37.64
2022-07-25T08:45:49.965Z,36.10
2022-07-25T08:48:18.114Z,39.56
2022-07-25T08:50:46.128Z,37.55
2022-07-25T08:53:32.811Z,37.10
2022-07-25T08:56:04.217Z,36.88
2022-07-25T08:58:35.289Z,37.67
2022-07-25T09:01:02.828Z,37.15
2022-07-25T09:03:38.928Z,36.59
2022-07-25T09:06:19.506Z,35.20
2022-07-25T09:08:56.993Z,35.41
2022-07-25T09:11:27.592Z,35.45
2022-07-25T09:14:15.305Z,34.77
2022-07-25T09:16:44.387Z,36.51
2022-07-25T09:19:11.993Z,35.91
2022-07-25T09:22:10.226Z,34.88
2022-07-25T09:24:44.438Z,36.69
2022-07-25T09:27:12.828Z,33.62
2022-07-25T09:29:42.489Z,34.55
2022-07-25T09:32:15.751Z,36.12
2022-07-25T09:34:43.763Z,34.86
2022-07-25T09:37:14.965Z,32.94
2022-07-25T09:39:47.158Z,33.51
2022-07-25T09:42:15.474Z,34.12
2022-07-25T09:44:42.785Z,32.55
2022-07-25T09:47:13.511Z,31.85
2022-07-25T09:49:44.776Z,32.75
2022-07-25T09:52:12.186Z,33.58
2022-07-25T09:54:39.812Z,32.42
2022-07-25T09:57:08.231Z,31.78
2022-07-25T09:59:35.837Z,30.89
2022-07-25T10:02:15.606Z,30.54
2022-07-25T10:04:47.227Z,31.57
2022-07-25T10:07:14.880Z,32.94
2022-07-25T10:09:49.059Z,30.93
2022-07-25T10:12:19.990Z,30.40
2022-07-25T10:15:06.120Z,32.82
2022-07-25T10:17:34.826Z,32.74
2022-07-25T10:20:03.914Z,32.37
2022-07-25T10:22:55.093Z,31.83
2022-07-25T10:25:22.783Z,34.94
2022-07-25T10:27:52.781Z,31.61
2022-07-25T10:30:20.435Z,29.81
2022-07-25T10:32:51.342Z,31.93
2022-07-25T10:35:18.621Z,31.37
2022-07-25T10:37:49.126Z,30.54
2022-07-25T10:40:32.284Z,30.16
2022-07-25T10:43:22.587Z,30.31
2022-07-25T10:45:51.759Z,29.74
2022-07-25T10:48:23.410Z,31.26
2022-07-25T10:50:57.474Z,30.41
2022-07-25T10:53:31.893Z,27.45
2022-07-25T10:56:06.103Z,29.70
2022-07-25T10:58:48.162Z,32.87
2022-07-25T11:01:19.756Z,30.12
2022-07-25T11:03:47.140Z,34.01
2022-07-25T11:06:15.292Z,29.09
2022-07-25T11:08:43.101Z,29.18
2022-07-25T11:11:10.752Z,27.93
2022-07-25T11:13:38.620Z,26.00
2022-07-25T11:16:05.943Z,26.94
2022-07-25T11:18:34.259Z,28.83
2022-07-25T11:21:06.217Z,30.87
2022-07-25T11:23:37.163Z,25.39
2022-07-25T11:26:08.369Z,25.16
2022-07-25T11:28:42.104Z,29.07
2022-07-25T11:31:09.682Z,26.36
2022-07-25T11:33:38.779Z,24.43
2022-07-25T11:36:32.229Z,22.69
2022-07-25T11:38:59.427Z,22.06
2022-07-25T11:41:29.979Z,23.96
2022-07-25T11:43:57.419Z,22.88
2022-07-25T11:46:24.765Z,21.08
2022-07-25T11:48:51.997Z,22.80
2022-07-25T11:51:19.625Z,19.59
2022-07-25T11:53:48.091Z,21.13
2022-07-25T11:56:40.712Z,22.07
2022-07-25T11:59:02.721Z,21.45
2022-07-25T12:01:33.864Z,18.04
2022-07-25T12:04:11.254Z,23.22
2022-07-25T12:06:39.444Z,22.05
2022-07-25T12:09:12.924Z,22.64
2022-07-25T12:11:43.697Z,24.23
2022-07-25T12:14:11.642Z,20.33
2022-07-25T12:16:38.926Z,20.96
2022-07-25T12:19:09.632Z,21.64
2022-07-25T12:21:37.576Z,21.60
2022-07-25T12:24:05.033Z,21.28
2022-07-25T12:26:32.196Z,23.65
2022-07-25T12:28:59.476Z,21.84
2022-07-25T12:31:28.694Z,22.51
2022-07-25T12:33:56.209Z,22.02
2022-07-25T12:36:23.469Z,23.53
2022-07-25T12:38:50.657Z,22.71
2022-07-25T12:41:22.639Z,25.00
2022-07-25T12:43:50.005Z,22.98
2022-07-25T12:46:17.390Z,23.17
2022-07-25T12:48:44.865Z,22.16
2022-07-25T12:51:12.124Z,23.11
2022-07-25T12:53:42.445Z,24.56
2022-07-25T12:56:09.991Z,24.92
2022-07-25T12:58:37.555Z,22.01
2022-07-25T13:01:05.873Z,23.09
2022-07-25T13:03:33.451Z,25.26
2022-07-25T13:06:15.576Z,22.05
2022-07-25T13:08:44.098Z,21.16
2022-07-25T13:11:12.667Z,19.93
2022-07-25T13:13:39.885Z,22.01
2022-07-25T13:16:07.326Z,20.53
2022-07-25T13:18:34.617Z,18.80
2022-07-25T13:21:03.590Z,18.86
2022-07-25T13:23:30.777Z,17.67
2022-07-25T13:26:00.496Z,22.11
2022-07-25T13:28:27.722Z,20.71
2022-07-25T13:30:55.382Z,20.07
2022-07-25T13:33:22.948Z,20.36
2022-07-25T13:35:50.164Z,22.32
2022-07-25T13:38:17.397Z,22.88
2022-07-25T13:40:44.684Z,21.85
2022-07-25T13:43:15.274Z,22.33
2022-07-25T13:45:42.630Z,21.26
2022-07-25T13:48:28.991Z,21.02
2022-07-25T13:50:58.204Z,22.80
2022-07-25T13:53:29.740Z,21.44
2022-07-25T13:55:58.620Z,22.92
2022-07-25T13:58:44.369Z,22.73
2022-07-25T14:01:15.424Z,24.73
2022-07-25T14:03:44.183Z,27.56
2022-07-25T14:06:11.724Z,25.40
2022-07-25T14:08:39.420Z,27.51
2022-07-25T14:11:08.355Z,26.26
2022-07-25T14:13:36.102Z,28.94
2022-07-25T14:16:03.501Z,27.18
2022-07-25T14:18:32.002Z,31.75
2022-07-25T14:20:59.640Z,29.79
2022-07-25T14:23:29.917Z,28.82
2022-07-25T14:25:58.615Z,29.35
2022-07-25T14:28:25.876Z,31.30
2022-07-25T14:30:53.217Z,30.46
2022-07-25T14:33:20.383Z,30.13
2022-07-25T14:35:47.575Z,31.57
2022-07-25T14:38:15.350Z,31.11
2022-07-25T14:40:43.026Z,32.22
2022-07-25T14:43:10.280Z,31.39
2022-07-25T14:45:37.553Z,30.87
2022-07-25T14:48:07.782Z,30.89
2022-07-25T14:50:35.044Z,33.14
2022-07-25T14:53:02.270Z,32.74
2022-07-25T14:55:29.487Z,32.26
2022-07-25T14:57:57.929Z,31.06
2022-07-25T15:00:29.499Z,31.16
2022-07-25T15:02:56.997Z,31.93
2022-07-25T15:05:26.239Z,33.28
2022-07-25T15:07:53.448Z,32.63
2022-07-25T15:10:20.719Z,32.28
2022-07-25T15:12:51.460Z,31.92
2022-07-25T15:15:25.207Z,33.91
2022-07-25T15:17:53.573Z,33.09
2022-07-25T15:20:20.847Z,33.01
2022-07-25T15:22:48.058Z,32.46
2022-07-25T15:25:58.374Z,32.73
2022-07-25T15:28:02.773Z,33.34
2022-07-25T15:30:29.965Z,33.09
2022-07-25T15:32:57.934Z,32.69
2022-07-25T15:35:26.368Z,34.32
2022-07-25T15:37:53.575Z,34.01
2022-07-25T15:40:20.855Z,32.35
2022-07-25T15:42:48.161Z,32.33
2022-07-25T15:45:32.687Z,32.71
2022-07-25T15:48:01.522Z,33.48
2022-07-25T15:50:28.699Z,33.08
2022-07-25T15:52:55.956Z,32.80
2022-07-25T15:55:23.132Z,31.81
2022-07-25T15:57:51.492Z,32.94
2022-07-25T16:00:24.793Z,32.60
2022-07-25T16:02:54.854Z,32.87
2022-07-25T16:05:22.169Z,31.79
2022-07-25T16:07:49.413Z,32.61
2022-07-25T16:10:16.663Z,32.12
2022-07-25T16:12:43.969Z,33.84
2022-07-25T16:15:11.231Z,32.79
2022-07-25T16:17:38.663Z,34.16
2022-07-25T16:20:06.748Z,32.89
2022-07-25T16:22:34.166Z,33.37
2022-07-25T16:25:02.873Z,32.37
2022-07-25T16:27:30.246Z,33.67
2022-07-25T16:29:57.494Z,34.89
2022-07-25T16:32:24.865Z,31.87
2022-07-25T16:34:52.353Z,33.84
2022-07-25T16:37:20.030Z,33.46
2022-07-25T16:39:47.574Z,31.85
2022-07-25T16:42:16.471Z,33.15
2022-07-25T16:44:44.769Z,34.55
2022-07-25T16:47:12.030Z,34.92
2022-07-25T16:49:39.204Z,33.95
2022-07-25T16:52:06.635Z,33.38
2022-07-25T16:54:33.797Z,33.91
2022-07-25T16:57:01.048Z,33.50
2022-07-25T16:59:28.246Z,33.83
2022-07-25T17:01:55.615Z,33.01
2022-07-25T17:04:22.906Z,34.19
2022-07-25T17:06:52.053Z,34.50
2022-07-25T17:09:19.396Z,32.67
2022-07-25T17:11:46.676Z,33.63
2022-07-25T17:14:14.241Z,32.94
2022-07-25T17:16:41.865Z,32.82
2022-07-25T17:19:09.584Z,33.27
2022-07-25T17:21:37.129Z,34.08
2022-07-25T17:24:04.669Z,34.31
2022-07-25T17:26:32.174Z,33.37
2022-07-25T17:29:19.604Z,35.07
2022-07-25T17:31:47.474Z,32.89
2022-07-25T17:34:14.791Z,33.25
2022-07-25T17:36:42.307Z,35.24
2022-07-25T17:39:10.145Z,35.16
2022-07-25T17:41:37.630Z,33.56
2022-07-25T17:44:08.631Z,34.33
2022-07-25T17:46:38.724Z,34.03
2022-07-25T17:49:05.987Z,33.44
2022-07-25T17:51:33.248Z,33.17
2022-07-25T17:54:00.424Z,33.13
2022-07-25T17:56:29.592Z,35.29
2022-07-25T17:58:56.908Z,33.24
2022-07-25T18:01:24.127Z,34.67
2022-07-25T18:03:51.373Z,34.79
2022-07-25T18:06:18.607Z,34.93
2022-07-25T18:08:45.892Z,36.34
2022-07-25T18:11:13.181Z,36.55
2022-07-25T18:13:40.378Z,35.71
2022-07-25T18:16:08.452Z,35.75
2022-07-25T18:18:35.792Z,35.62
2022-07-25T18:21:03.098Z,36.92
2022-07-25T18:23:30.709Z,35.06
2022-07-25T18:25:57.985Z,37.21
2022-07-25T18:28:27.898Z,37.98
2022-07-25T18:30:55.732Z,38.15
2022-07-25T18:33:23.047Z,37.58
2022-07-25T18:35:51.321Z,37.93
2022-07-25T18:38:18.650Z,38.60
2022-07-25T18:40:45.867Z,37.79
2022-07-25T18:43:13.725Z,38.96
2022-07-25T18:45:42.190Z,38.76
2022-07-25T18:48:10.054Z,36.92
2022-07-25T18:50:37.384Z,38.84
2022-07-25T18:53:07.175Z,38.75
2022-07-25T18:55:34.499Z,37.61
2022-07-25T18:58:01.780Z,39.14
2022-07-25T19:00:29.011Z,38.88
2022-07-25T19:02:56.345Z,38.34
2022-07-25T19:06:03.078Z,38.09
2022-07-25T19:08:30.963Z,38.38
2022-07-25T19:10:58.224Z,38.53
2022-07-25T19:13:47.562Z,38.43
2022-07-25T19:16:13.004Z,38.73
2022-07-25T19:18:42.789Z,38.98
2022-07-25T19:21:10.086Z,39.29
2022-07-25T19:23:37.304Z,38.46
2022-07-25T19:26:04.580Z,38.70
2022-07-25T19:28:32.074Z,39.07
2022-07-25T19:30:59.494Z,39.70
2022-07-25T19:33:34.786Z,39.69
2022-07-25T19:36:04.135Z,40.35
2022-07-25T19:38:31.608Z,40.60
2022-07-25T19:40:59.158Z,40.58
2022-07-25T19:43:26.469Z,39.89
2022-07-25T19:45:54.104Z,41.12
2022-07-25T19:48:24.384Z,41.40
2022-07-25T19:50:52.284Z,41.22
2022-07-25T19:53:19.572Z,39.63
2022-07-25T19:55:46.811Z,40.76
2022-07-25T19:58:13.975Z,41.17
2022-07-25T20:00:41.233Z,41.02
2022-07-25T20:03:08.538Z,39.77
2022-07-25T20:05:36.613Z,41.14
2022-07-25T20:08:06.023Z,41.58
2022-07-25T20:10:33.481Z,41.35
2022-07-25T20:13:01.545Z,40.95
2022-07-25T20:15:29.091Z,41.33
2022-07-25T20:17:57.025Z,41.19
2022-07-25T20:20:24.532Z,40.97
2022-07-25T20:22:52.093Z,40.76
2022-07-25T20:25:19.467Z,41.14
2022-07-25T20:27:49.545Z,40.90
2022-07-25T20:30:17.287Z,42.09
2022-07-25T20:32:44.551Z,42.00
2022-07-25T20:35:11.753Z,41.40
2022-07-25T20:37:39.023Z,41.92
2022-07-25T20:40:26.680Z,42.56
2022-07-25T20:42:53.949Z,42.48
2022-07-25T20:45:21.344Z,42.44
2022-07-25T20:48:11.699Z,42.11
2022-07-25T20:50:41.072Z,42.60
2022-07-25T20:53:08.587Z,42.34
2022-07-25T20:55:35.925Z,42.58
2022-07-25T20:58:03.493Z,42.29
2022-07-25T21:00:30.810Z,41.64
2022-07-25T21:03:00.945Z,42.88
2022-07-25T21:05:28.375Z,42.49
2022-07-25T21:07:55.669Z,42.31
2022-07-25T21:10:22.944Z,42.47
2022-07-25T21:12:50.242Z,45.21
2022-07-25T21:15:17.532Z,47.58
2022-07-25T21:17:44.746Z,48.87
2022-07-25T21:20:12.584Z,49.79
2022-07-25T21:22:39.834Z,50.96
2022-07-25T21:25:07.277Z,50.94
2022-07-25T21:27:34.700Z,51.53
2022-07-25T21:30:01.946Z,51.41
2022-07-25T21:32:29.317Z,51.19
2022-07-25T21:34:56.615Z,50.96
2022-07-25T21:37:23.964Z,51.06
2022-07-25T21:39:51.285Z,51.96
2022-07-25T21:42:21.399Z,52.59
2022-07-25T21:44:48.776Z,51.90
2022-07-25T21:47:16.150Z,52.08
2022-07-25T21:50:02.042Z,52.46
2022-07-25T21:52:34.509Z,50.31
2022-07-25T21:55:03.564Z,49.80
2022-07-25T21:57:31.325Z,50.19
2022-07-25T21:59:58.627Z,50.47
2022-07-25T22:02:26.051Z,51.24
2022-07-25T22:04:53.361Z,51.85
2022-07-25T22:07:20.733Z,51.42
2022-07-25T22:09:56.783Z,50.67
2022-07-25T22:12:24.663Z,49.89
2022-07-25T22:14:51.995Z,50.10
2022-07-25T22:17:19.304Z,49.44
2022-07-25T22:19:46.681Z,49.99
2022-07-25T22:22:13.985Z,50.36
2022-07-25T22:24:46.302Z,50.08
2022-07-25T22:27:13.965Z,52.30
2022-07-25T22:29:41.377Z,57.80
2022-07-25T22:32:08.743Z,61.17
2022-07-25T22:34:36.058Z,60.72
2022-07-25T22:37:03.376Z,60.48
2022-07-25T22:39:32.067Z,62.73
2022-07-25T22:41:59.349Z,62.90
2022-07-25T22:44:26.693Z,61.91
2022-07-25T22:46:54.019Z,61.17
2022-07-25T22:49:23.402Z,61.82
2022-07-25T22:51:51.028Z,61.53
2022-07-25T22:54:18.304Z,58.38
2022-07-25T22:56:45.609Z,57.93
2022-07-25T22:59:13.134Z,57.56
2022-07-25T23:01:40.421Z,54.45
2022-07-25T23:04:07.801Z,55.60
2022-07-25T23:06:35.162Z,51.79
2022-07-25T23:09:02.513Z,53.02
2022-07-25T23:11:29.827Z,51.29
2022-07-25T23:13:57.201Z,49.84
2022-07-25T23:16:27.635Z,48.84
2022-07-25T23:18:55.838Z,46.05
2022-07-25T23:21:23.708Z,45.70
2022-07-25T23:23:52.534Z,46.76
2022-07-25T23:26:19.888Z,46.54
2022-07-25T23:28:47.182Z,45.28
2022-07-25T23:31:14.550Z,47.90
2022-07-25T23:33:41.942Z,45.10
2022-07-25T23:36:09.315Z,47.28
2022-07-25T23:38:37.154Z,44.57
2022-07-25T23:41:04.692Z,46.29
2022-07-25T23:43:55.928Z,45.31
2022-07-25T23:46:20.270Z,46.11
2022-07-25T23:48:55.859Z,46.70
2022-07-25T23:51:23.213Z,46.22
2022-07-25T23:53:58.060Z,47.24
2022-07-25T23:56:25.344Z,46.66
2022-07-25T23:58:52.715Z,46.08
